sensor_id;sensor_type;location;lat;lon;timestamp;P1;durP1;ratioP1;P2;durP2;ratioP2
30515;SDS011;17297;54.022;10.760;2023-01-29T00:01:01;7.15;;;5.13;;
30515;SDS011;17297;54.022;10.760;2023-01-29T00:03:27;7.95;;;5.30;;
30515;SDS011;17297;54.022;10.760;2023-01-29T00:05:53;6.47;;;4.80;;
30515;SDS011;17297;54.022;10.760;2023-01-29T00:08:18;7.50;;;5.07;;
30515;SDS011;17297;54.022;10.760;2023-01-29T00:10:43;7.38;;;5.30;;
30515;SDS011;17297;54.022;10.760;2023-01-29T00:13:09;7.00;;;5.13;;
30515;SDS011;17297;54.022;10.760;2023-01-29T00:15:34;8.15;;;5.57;;
30515;SDS011;17297;54.022;10.760;2023-01-29T00:18:00;8.68;;;5.60;;
30515;SDS011;17297;54.022;10.760;2023-01-29T00:20:25;7.13;;;4.70;;
30515;SDS011;17297;54.022;10.760;2023-01-29T00:22:51;9.45;;;6.13;;
30515;SDS011;17297;54.022;10.760;2023-01-29T00:25:16;8.15;;;5.07;;
30515;SDS011;17297;54.022;10.760;2023-01-29T00:27:41;8.27;;;4.97;;
30515;SDS011;17297;54.022;10.760;2023-01-29T00:30:08;8.30;;;5.55;;
30515;SDS011;17297;54.022;10.760;2023-01-29T00:32:37;10.32;;;5.97;;
30515;SDS011;17297;54.022;10.760;2023-01-29T00:35:06;8.90;;;6.05;;
30515;SDS011;17297;54.022;10.760;2023-01-29T00:37:33;8.35;;;5.38;;
30515;SDS011;17297;54.022;10.760;2023-01-29T00:39:59;7.22;;;5.95;;
30515;SDS011;17297;54.022;10.760;2023-01-29T00:42:24;9.15;;;6.40;;
30515;SDS011;17297;54.022;10.760;2023-01-29T00:45:09;8.95;;;5.97;;
30515;SDS011;17297;54.022;10.760;2023-01-29T00:47:35;7.93;;;5.43;;
30515;SDS011;17297;54.022;10.760;2023-01-29T00:50:02;7.82;;;5.55;;
30515;SDS011;17297;54.022;10.760;2023-01-29T00:52:30;9.27;;;6.45;;
30515;SDS011;17297;54.022;10.760;2023-01-29T00:54:56;7.88;;;5.18;;
30515;SDS011;17297;54.022;10.760;2023-01-29T00:57:23;7.80;;;5.78;;
30515;SDS011;17297;54.022;10.760;2023-01-29T00:59:51;7.97;;;5.93;;
30515;SDS011;17297;54.022;10.760;2023-01-29T01:02:17;8.18;;;5.30;;
30515;SDS011;17297;54.022;10.760;2023-01-29T01:05:02;7.65;;;5.38;;
30515;SDS011;17297;54.022;10.760;2023-01-29T01:07:30;6.38;;;4.90;;
30515;SDS011;17297;54.022;10.760;2023-01-29T01:09:56;7.90;;;5.70;;
30515;SDS011;17297;54.022;10.760;2023-01-29T01:12:40;9.02;;;5.88;;
30515;SDS011;17297;54.022;10.760;2023-01-29T01:15:05;7.85;;;5.40;;
30515;SDS011;17297;54.022;10.760;2023-01-29T01:17:31;6.90;;;5.38;;
30515;SDS011;17297;54.022;10.760;2023-01-29T01:19:56;6.43;;;4.38;;
30515;SDS011;17297;54.022;10.760;2023-01-29T01:22:21;8.50;;;5.35;;
30515;SDS011;17297;54.022;10.760;2023-01-29T01:24:47;8.10;;;5.55;;
30515;SDS011;17297;54.022;10.760;2023-01-29T01:27:12;9.07;;;5.30;;
30515;SDS011;17297;54.022;10.760;2023-01-29T01:29:38;8.02;;;5.40;;
30515;SDS011;17297;54.022;10.760;2023-01-29T01:32:03;7.90;;;5.40;;
30515;SDS011;17297;54.022;10.760;2023-01-29T01:34:29;5.53;;;4.65;;
30515;SDS011;17297;54.022;10.760;2023-01-29T01:36:55;6.38;;;4.65;;
30515;SDS011;17297;54.022;10.760;2023-01-29T01:39:21;7.72;;;4.82;;
30515;SDS011;17297;54.022;10.760;2023-01-29T01:41:48;7.65;;;5.30;;
30515;SDS011;17297;54.022;10.760;2023-01-29T01:47:18;8.15;;;5.28;;
30515;SDS011;17297;54.022;10.760;2023-01-29T01:49:47;6.90;;;4.90;;
30515;SDS011;17297;54.022;10.760;2023-01-29T01:52:12;6.50;;;4.88;;
30515;SDS011;17297;54.022;10.760;2023-01-29T01:54:40;7.13;;;5.35;;
30515;SDS011;17297;54.022;10.760;2023-01-29T01:57:12;6.80;;;5.15;;
30515;SDS011;17297;54.022;10.760;2023-01-29T01:59:42;5.75;;;4.47;;
30515;SDS011;17297;54.022;10.760;2023-01-29T02:02:12;7.63;;;5.03;;
30515;SDS011;17297;54.022;10.760;2023-01-29T02:04:58;7.43;;;4.35;;
30515;SDS011;17297;54.022;10.760;2023-01-29T02:07:43;4.68;;;3.65;;
30515;SDS011;17297;54.022;10.760;2023-01-29T02:10:31;6.07;;;5.43;;
30515;SDS011;17297;54.022;10.760;2023-01-29T02:13:03;6.05;;;4.13;;
30515;SDS011;17297;54.022;10.760;2023-01-29T02:15:30;5.68;;;4.28;;
30515;SDS011;17297;54.022;10.760;2023-01-29T02:17:55;6.65;;;4.90;;
30515;SDS011;17297;54.022;10.760;2023-01-29T02:20:25;6.32;;;4.68;;
30515;SDS011;17297;54.022;10.760;2023-01-29T02:25:29;7.25;;;5.10;;
30515;SDS011;17297;54.022;10.760;2023-01-29T02:31:07;7.05;;;4.82;;
30515;SDS011;17297;54.022;10.760;2023-01-29T02:33:37;10.55;;;6.00;;
30515;SDS011;17297;54.022;10.760;2023-01-29T02:47:29;6.93;;;4.90;;
30515;SDS011;17297;54.022;10.760;2023-01-29T02:50:11;8.48;;;5.70;;
30515;SDS011;17297;54.022;10.760;2023-01-29T02:53:03;9.45;;;5.63;;
30515;SDS011;17297;54.022;10.760;2023-01-29T02:55:41;9.02;;;5.68;;
30515;SDS011;17297;54.022;10.760;2023-01-29T02:58:16;10.15;;;5.60;;
30515;SDS011;17297;54.022;10.760;2023-01-29T03:00:53;8.43;;;5.82;;
30515;SDS011;17297;54.022;10.760;2023-01-29T03:03:27;8.75;;;5.97;;
30515;SDS011;17297;54.022;10.760;2023-01-29T03:06:00;7.43;;;4.95;;
30515;SDS011;17297;54.022;10.760;2023-01-29T03:08:43;5.65;;;4.13;;
30515;SDS011;17297;54.022;10.760;2023-01-29T03:11:14;8.55;;;4.75;;
30515;SDS011;17297;54.022;10.760;2023-01-29T03:19:13;4.82;;;3.70;;
30515;SDS011;17297;54.022;10.760;2023-01-29T03:21:45;5.97;;;4.25;;
30515;SDS011;17297;54.022;10.760;2023-01-29T03:27:23;7.40;;;4.28;;
30515;SDS011;17297;54.022;10.760;2023-01-29T03:30:14;7.32;;;4.35;;
30515;SDS011;17297;54.022;10.760;2023-01-29T03:33:17;7.78;;;5.05;;
30515;SDS011;17297;54.022;10.760;2023-01-29T03:35:52;6.63;;;4.80;;
30515;SDS011;17297;54.022;10.760;2023-01-29T03:38:25;8.02;;;4.93;;
30515;SDS011;17297;54.022;10.760;2023-01-29T03:41:01;4.68;;;4.10;;
30515;SDS011;17297;54.022;10.760;2023-01-29T03:46:31;11.27;;;6.97;;
30515;SDS011;17297;54.022;10.760;2023-01-29T03:49:19;8.30;;;4.65;;
30515;SDS011;17297;54.022;10.760;2023-01-29T03:52:02;5.15;;;4.05;;
30515;SDS011;17297;54.022;10.760;2023-01-29T03:54:39;7.80;;;4.43;;
30515;SDS011;17297;54.022;10.760;2023-01-29T03:59:53;7.38;;;5.03;;
30515;SDS011;17297;54.022;10.760;2023-01-29T04:03:06;5.57;;;4.32;;
30515;SDS011;17297;54.022;10.760;2023-01-29T04:05:33;6.75;;;4.30;;
30515;SDS011;17297;54.022;10.760;2023-01-29T04:08:10;5.47;;;3.85;;
30515;SDS011;17297;54.022;10.760;2023-01-29T04:10:41;5.25;;;3.28;;
30515;SDS011;17297;54.022;10.760;2023-01-29T04:13:10;5.88;;;4.25;;
30515;SDS011;17297;54.022;10.760;2023-01-29T04:15:48;7.20;;;4.45;;
30515;SDS011;17297;54.022;10.760;2023-01-29T04:18:26;6.47;;;4.43;;
30515;SDS011;17297;54.022;10.760;2023-01-29T04:21:04;7.40;;;4.63;;
30515;SDS011;17297;54.022;10.760;2023-01-29T04:23:31;5.22;;;4.10;;
30515;SDS011;17297;54.022;10.760;2023-01-29T04:28:53;6.20;;;3.92;;
30515;SDS011;17297;54.022;10.760;2023-01-29T04:31:29;9.40;;;4.60;;
30515;SDS011;17297;54.022;10.760;2023-01-29T04:34:07;7.50;;;4.87;;
30515;SDS011;17297;54.022;10.760;2023-01-29T04:39:17;6.57;;;3.95;;
30515;SDS011;17297;54.022;10.760;2023-01-29T04:41:49;6.75;;;4.07;;
30515;SDS011;17297;54.022;10.760;2023-01-29T04:44:38;7.30;;;5.45;;
30515;SDS011;17297;54.022;10.760;2023-01-29T04:52:32;5.63;;;4.43;;
30515;SDS011;17297;54.022;10.760;2023-01-29T04:55:12;7.20;;;4.70;;
30515;SDS011;17297;54.022;10.760;2023-01-29T04:57:49;5.88;;;3.97;;
30515;SDS011;17297;54.022;10.760;2023-01-29T05:00:17;5.22;;;4.05;;
30515;SDS011;17297;54.022;10.760;2023-01-29T05:02:48;5.80;;;4.07;;
30515;SDS011;17297;54.022;10.760;2023-01-29T05:05:14;4.75;;;4.25;;
30515;SDS011;17297;54.022;10.760;2023-01-29T05:07:42;5.72;;;4.18;;
30515;SDS011;17297;54.022;10.760;2023-01-29T05:10:08;5.47;;;4.90;;
30515;SDS011;17297;54.022;10.760;2023-01-29T05:12:36;4.18;;;3.38;;
30515;SDS011;17297;54.022;10.760;2023-01-29T05:15:04;6.65;;;4.57;;
30515;SDS011;17297;54.022;10.760;2023-01-29T05:17:33;7.35;;;4.53;;
30515;SDS011;17297;54.022;10.760;2023-01-29T05:19:59;5.20;;;4.38;;
30515;SDS011;17297;54.022;10.760;2023-01-29T05:22:24;4.97;;;4.15;;
30515;SDS011;17297;54.022;10.760;2023-01-29T05:24:51;5.30;;;3.90;;
30515;SDS011;17297;54.022;10.760;2023-01-29T05:27:34;6.00;;;3.80;;
30515;SDS011;17297;54.022;10.760;2023-01-29T05:30:19;5.93;;;4.03;;
30515;SDS011;17297;54.022;10.760;2023-01-29T05:32:45;5.88;;;3.97;;
30515;SDS011;17297;54.022;10.760;2023-01-29T05:35:10;5.88;;;3.85;;
30515;SDS011;17297;54.022;10.760;2023-01-29T05:37:35;5.60;;;4.43;;
30515;SDS011;17297;54.022;10.760;2023-01-29T05:40:01;5.80;;;4.05;;
30515;SDS011;17297;54.022;10.760;2023-01-29T05:42:26;4.68;;;3.60;;
30515;SDS011;17297;54.022;10.760;2023-01-29T05:44:52;7.13;;;4.13;;
30515;SDS011;17297;54.022;10.760;2023-01-29T05:47:17;8.05;;;4.22;;
30515;SDS011;17297;54.022;10.760;2023-01-29T05:49:44;6.30;;;4.50;;
30515;SDS011;17297;54.022;10.760;2023-01-29T05:52:09;5.80;;;4.40;;
30515;SDS011;17297;54.022;10.760;2023-01-29T05:54:34;5.22;;;4.05;;
30515;SDS011;17297;54.022;10.760;2023-01-29T05:57:00;5.35;;;4.22;;
30515;SDS011;17297;54.022;10.760;2023-01-29T05:59:25;5.30;;;4.18;;
30515;SDS011;17297;54.022;10.760;2023-01-29T06:01:50;4.28;;;3.20;;
30515;SDS011;17297;54.022;10.760;2023-01-29T06:04:15;6.65;;;3.53;;
30515;SDS011;17297;54.022;10.760;2023-01-29T06:06:41;5.05;;;4.28;;
30515;SDS011;17297;54.022;10.760;2023-01-29T06:09:08;4.80;;;3.75;;
30515;SDS011;17297;54.022;10.760;2023-01-29T06:11:34;6.80;;;4.07;;
30515;SDS011;17297;54.022;10.760;2023-01-29T06:14:00;5.68;;;4.45;;
30515;SDS011;17297;54.022;10.760;2023-01-29T06:16:25;8.40;;;5.45;;
30515;SDS011;17297;54.022;10.760;2023-01-29T06:18:50;7.85;;;5.68;;
30515;SDS011;17297;54.022;10.760;2023-01-29T06:21:16;7.63;;;5.25;;
30515;SDS011;17297;54.022;10.760;2023-01-29T06:23:41;8.30;;;5.07;;
30515;SDS011;17297;54.022;10.760;2023-01-29T06:26:10;9.57;;;5.95;;
30515;SDS011;17297;54.022;10.760;2023-01-29T06:28:37;7.32;;;4.70;;
30515;SDS011;17297;54.022;10.760;2023-01-29T06:31:05;8.20;;;5.35;;
30515;SDS011;17297;54.022;10.760;2023-01-29T06:33:31;8.90;;;6.32;;
30515;SDS011;17297;54.022;10.760;2023-01-29T06:35:57;7.63;;;5.63;;
30515;SDS011;17297;54.022;10.760;2023-01-29T06:38:23;6.80;;;4.80;;
30515;SDS011;17297;54.022;10.760;2023-01-29T06:40:49;5.65;;;4.40;;
30515;SDS011;17297;54.022;10.760;2023-01-29T06:43:15;5.72;;;4.40;;
30515;SDS011;17297;54.022;10.760;2023-01-29T06:45:50;5.28;;;3.95;;
30515;SDS011;17297;54.022;10.760;2023-01-29T06:48:20;5.03;;;3.50;;
30515;SDS011;17297;54.022;10.760;2023-01-29T06:50:46;5.63;;;4.07;;
30515;SDS011;17297;54.022;10.760;2023-01-29T06:53:13;4.03;;;3.03;;
30515;SDS011;17297;54.022;10.760;2023-01-29T06:55:40;4.90;;;3.60;;
30515;SDS011;17297;54.022;10.760;2023-01-29T06:58:09;3.67;;;2.90;;
30515;SDS011;17297;54.022;10.760;2023-01-29T07:00:36;4.20;;;3.17;;
30515;SDS011;17297;54.022;10.760;2023-01-29T07:03:03;4.15;;;3.13;;
30515;SDS011;17297;54.022;10.760;2023-01-29T07:05:29;4.07;;;3.10;;
30515;SDS011;17297;54.022;10.760;2023-01-29T07:07:55;4.22;;;3.20;;
30515;SDS011;17297;54.022;10.760;2023-01-29T07:10:20;3.17;;;2.88;;
30515;SDS011;17297;54.022;10.760;2023-01-29T07:12:46;4.00;;;3.42;;
30515;SDS011;17297;54.022;10.760;2023-01-29T07:15:12;4.43;;;3.60;;
30515;SDS011;17297;54.022;10.760;2023-01-29T07:17:38;4.72;;;3.20;;
30515;SDS011;17297;54.022;10.760;2023-01-29T07:20:04;4.57;;;3.47;;
30515;SDS011;17297;54.022;10.760;2023-01-29T07:22:30;4.53;;;3.80;;
30515;SDS011;17297;54.022;10.760;2023-01-29T07:24:56;5.80;;;3.78;;
30515;SDS011;17297;54.022;10.760;2023-01-29T07:27:22;4.93;;;3.15;;
30515;SDS011;17297;54.022;10.760;2023-01-29T07:29:47;5.05;;;3.78;;
30515;SDS011;17297;54.022;10.760;2023-01-29T07:32:13;5.43;;;4.47;;
30515;SDS011;17297;54.022;10.760;2023-01-29T07:34:38;5.18;;;4.57;;
30515;SDS011;17297;54.022;10.760;2023-01-29T07:37:03;4.75;;;3.88;;
30515;SDS011;17297;54.022;10.760;2023-01-29T07:39:30;5.13;;;4.07;;
30515;SDS011;17297;54.022;10.760;2023-01-29T07:41:56;6.07;;;4.18;;
30515;SDS011;17297;54.022;10.760;2023-01-29T07:44:21;5.85;;;4.28;;
30515;SDS011;17297;54.022;10.760;2023-01-29T07:46:47;4.45;;;3.42;;
30515;SDS011;17297;54.022;10.760;2023-01-29T07:49:12;5.35;;;4.00;;
30515;SDS011;17297;54.022;10.760;2023-01-29T07:51:37;6.05;;;4.60;;
30515;SDS011;17297;54.022;10.760;2023-01-29T07:54:03;5.75;;;4.18;;
30515;SDS011;17297;54.022;10.760;2023-01-29T07:56:28;6.00;;;4.15;;
30515;SDS011;17297;54.022;10.760;2023-01-29T07:58:54;5.82;;;4.28;;
30515;SDS011;17297;54.022;10.760;2023-01-29T08:01:20;7.13;;;4.68;;
30515;SDS011;17297;54.022;10.760;2023-01-29T08:03:45;5.90;;;3.90;;
30515;SDS011;17297;54.022;10.760;2023-01-29T08:06:11;5.82;;;4.10;;
30515;SDS011;17297;54.022;10.760;2023-01-29T08:08:38;6.57;;;4.57;;
30515;SDS011;17297;54.022;10.760;2023-01-29T08:11:03;5.88;;;4.47;;
30515;SDS011;17297;54.022;10.760;2023-01-29T08:13:30;6.80;;;4.18;;
30515;SDS011;17297;54.022;10.760;2023-01-29T08:15:59;5.55;;;4.13;;
30515;SDS011;17297;54.022;10.760;2023-01-29T08:18:26;6.45;;;4.43;;
30515;SDS011;17297;54.022;10.760;2023-01-29T08:20:51;4.30;;;3.58;;
30515;SDS011;17297;54.022;10.760;2023-01-29T08:23:17;7.22;;;5.15;;
30515;SDS011;17297;54.022;10.760;2023-01-29T08:25:42;7.07;;;4.35;;
30515;SDS011;17297;54.022;10.760;2023-01-29T08:28:07;5.85;;;4.00;;
30515;SDS011;17297;54.022;10.760;2023-01-29T08:30:33;5.72;;;3.80;;
30515;SDS011;17297;54.022;10.760;2023-01-29T08:32:59;6.82;;;4.20;;
30515;SDS011;17297;54.022;10.760;2023-01-29T08:35:26;7.45;;;4.80;;
30515;SDS011;17297;54.022;10.760;2023-01-29T08:37:57;8.27;;;4.88;;
30515;SDS011;17297;54.022;10.760;2023-01-29T08:40:24;6.57;;;4.03;;
30515;SDS011;17297;54.022;10.760;2023-01-29T08:42:50;7.15;;;4.88;;
30515;SDS011;17297;54.022;10.760;2023-01-29T08:45:16;5.65;;;4.47;;
30515;SDS011;17297;54.022;10.760;2023-01-29T08:47:47;7.28;;;5.15;;
30515;SDS011;17297;54.022;10.760;2023-01-29T08:50:14;6.80;;;4.20;;
30515;SDS011;17297;54.022;10.760;2023-01-29T08:52:41;7.00;;;5.00;;
30515;SDS011;17297;54.022;10.760;2023-01-29T08:55:07;7.13;;;3.97;;
30515;SDS011;17297;54.022;10.760;2023-01-29T08:57:33;7.45;;;4.75;;
30515;SDS011;17297;54.022;10.760;2023-01-29T08:59:58;5.70;;;4.43;;
30515;SDS011;17297;54.022;10.760;2023-01-29T09:02:23;6.15;;;4.25;;
30515;SDS011;17297;54.022;10.760;2023-01-29T09:04:49;7.35;;;4.72;;
30515;SDS011;17297;54.022;10.760;2023-01-29T09:07:14;5.22;;;4.15;;
30515;SDS011;17297;54.022;10.760;2023-01-29T09:09:39;7.25;;;4.75;;
30515;SDS011;17297;54.022;10.760;2023-01-29T09:12:05;6.95;;;4.13;;
30515;SDS011;17297;54.022;10.760;2023-01-29T09:14:30;6.20;;;4.22;;
30515;SDS011;17297;54.022;10.760;2023-01-29T09:16:56;5.57;;;3.67;;
30515;SDS011;17297;54.022;10.760;2023-01-29T09:19:22;7.45;;;4.70;;
30515;SDS011;17297;54.022;10.760;2023-01-29T09:21:47;7.95;;;5.05;;
30515;SDS011;17297;54.022;10.760;2023-01-29T09:24:13;6.32;;;4.50;;
30515;SDS011;17297;54.022;10.760;2023-01-29T09:26:39;7.18;;;4.30;;
30515;SDS011;17297;54.022;10.760;2023-01-29T09:29:05;6.55;;;4.95;;
30515;SDS011;17297;54.022;10.760;2023-01-29T09:31:30;7.40;;;4.70;;
30515;SDS011;17297;54.022;10.760;2023-01-29T09:33:55;5.03;;;3.80;;
30515;SDS011;17297;54.022;10.760;2023-01-29T09:36:21;7.03;;;5.20;;
30515;SDS011;17297;54.022;10.760;2023-01-29T09:38:46;5.53;;;4.72;;
30515;SDS011;17297;54.022;10.760;2023-01-29T09:44:02;6.75;;;4.30;;
30515;SDS011;17297;54.022;10.760;2023-01-29T09:46:41;5.43;;;4.38;;
30515;SDS011;17297;54.022;10.760;2023-01-29T09:49:16;6.35;;;4.70;;
30515;SDS011;17297;54.022;10.760;2023-01-29T09:57:39;7.35;;;4.90;;
30515;SDS011;17297;54.022;10.760;2023-01-29T10:00:17;7.38;;;4.68;;
30515;SDS011;17297;54.022;10.760;2023-01-29T10:08:34;6.03;;;4.57;;
30515;SDS011;17297;54.022;10.760;2023-01-29T10:20:27;8.13;;;5.35;;
30515;SDS011;17297;54.022;10.760;2023-01-29T10:25:38;8.02;;;5.13;;
30515;SDS011;17297;54.022;10.760;2023-01-29T10:28:10;8.15;;;5.53;;
30515;SDS011;17297;54.022;10.760;2023-01-29T10:30:44;7.72;;;5.90;;
30515;SDS011;17297;54.022;10.760;2023-01-29T10:33:17;9.07;;;6.47;;
30515;SDS011;17297;54.022;10.760;2023-01-29T10:35:49;8.85;;;6.55;;
30515;SDS011;17297;54.022;10.760;2023-01-29T10:38:23;8.07;;;6.18;;
30515;SDS011;17297;54.022;10.760;2023-01-29T10:43:48;7.78;;;5.90;;
30515;SDS011;17297;54.022;10.760;2023-01-29T10:46:25;9.10;;;6.13;;
30515;SDS011;17297;54.022;10.760;2023-01-29T10:49:14;11.13;;;6.90;;
30515;SDS011;17297;54.022;10.760;2023-01-29T10:52:32;8.43;;;6.07;;
30515;SDS011;17297;54.022;10.760;2023-01-29T10:59:36;9.18;;;6.13;;
30515;SDS011;17297;54.022;10.760;2023-01-29T11:02:13;8.70;;;6.03;;
30515;SDS011;17297;54.022;10.760;2023-01-29T11:04:42;11.43;;;6.20;;
30515;SDS011;17297;54.022;10.760;2023-01-29T11:07:07;10.02;;;6.38;;
30515;SDS011;17297;54.022;10.760;2023-01-29T11:09:34;9.23;;;5.82;;
30515;SDS011;17297;54.022;10.760;2023-01-29T11:12:09;9.05;;;5.38;;
30515;SDS011;17297;54.022;10.760;2023-01-29T11:14:41;8.68;;;6.53;;
30515;SDS011;17297;54.022;10.760;2023-01-29T11:17:15;10.95;;;7.30;;
30515;SDS011;17297;54.022;10.760;2023-01-29T11:19:42;8.55;;;6.68;;
30515;SDS011;17297;54.022;10.760;2023-01-29T11:22:15;11.95;;;7.55;;
30515;SDS011;17297;54.022;10.760;2023-01-29T11:24:46;9.25;;;5.90;;
30515;SDS011;17297;54.022;10.760;2023-01-29T11:27:31;10.40;;;7.30;;
30515;SDS011;17297;54.022;10.760;2023-01-29T11:29:59;10.70;;;6.72;;
30515;SDS011;17297;54.022;10.760;2023-01-29T11:32:26;9.15;;;6.10;;
30515;SDS011;17297;54.022;10.760;2023-01-29T11:34:58;10.55;;;6.32;;
30515;SDS011;17297;54.022;10.760;2023-01-29T11:37:44;8.88;;;6.13;;
30515;SDS011;17297;54.022;10.760;2023-01-29T11:42:42;9.85;;;5.85;;
30515;SDS011;17297;54.022;10.760;2023-01-29T11:45:22;8.75;;;5.97;;
30515;SDS011;17297;54.022;10.760;2023-01-29T11:47:49;7.88;;;5.68;;
30515;SDS011;17297;54.022;10.760;2023-01-29T11:50:19;9.00;;;6.25;;
30515;SDS011;17297;54.022;10.760;2023-01-29T11:52:51;8.98;;;5.75;;
30515;SDS011;17297;54.022;10.760;2023-01-29T11:55:20;10.10;;;6.75;;
30515;SDS011;17297;54.022;10.760;2023-01-29T11:57:59;8.80;;;6.10;;
30515;SDS011;17297;54.022;10.760;2023-01-29T12:00:29;8.25;;;5.40;;
30515;SDS011;17297;54.022;10.760;2023-01-29T12:05:40;8.25;;;6.07;;
30515;SDS011;17297;54.022;10.760;2023-01-29T12:08:17;8.73;;;5.72;;
30515;SDS011;17297;54.022;10.760;2023-01-29T12:10:43;11.05;;;7.45;;
30515;SDS011;17297;54.022;10.760;2023-01-29T12:15:34;11.23;;;6.35;;
30515;SDS011;17297;54.022;10.760;2023-01-29T12:18:11;9.20;;;5.82;;
30515;SDS011;17297;54.022;10.760;2023-01-29T12:26:23;9.23;;;5.50;;
30515;SDS011;17297;54.022;10.760;2023-01-29T12:29:03;8.17;;;5.43;;
30515;SDS011;17297;54.022;10.760;2023-01-29T12:34:26;9.68;;;5.97;;
30515;SDS011;17297;54.022;10.760;2023-01-29T12:37:03;9.35;;;5.97;;
30515;SDS011;17297;54.022;10.760;2023-01-29T12:39:38;9.27;;;6.50;;
30515;SDS011;17297;54.022;10.760;2023-01-29T12:42:07;9.23;;;5.90;;
30515;SDS011;17297;54.022;10.760;2023-01-29T12:44:43;7.40;;;5.80;;
30515;SDS011;17297;54.022;10.760;2023-01-29T12:47:32;9.52;;;6.30;;
30515;SDS011;17297;54.022;10.760;2023-01-29T12:50:05;7.57;;;6.00;;
30515;SDS011;17297;54.022;10.760;2023-01-29T12:52:42;7.40;;;5.35;;
30515;SDS011;17297;54.022;10.760;2023-01-29T12:58:01;10.00;;;6.10;;
30515;SDS011;17297;54.022;10.760;2023-01-29T13:00:38;8.30;;;5.95;;
30515;SDS011;17297;54.022;10.760;2023-01-29T13:03:12;8.10;;;5.88;;
30515;SDS011;17297;54.022;10.760;2023-01-29T13:05:43;8.45;;;6.40;;
30515;SDS011;17297;54.022;10.760;2023-01-29T13:08:20;9.50;;;6.97;;
30515;SDS011;17297;54.022;10.760;2023-01-29T13:11:09;9.03;;;6.20;;
30515;SDS011;17297;54.022;10.760;2023-01-29T13:13:47;8.38;;;6.40;;
30515;SDS011;17297;54.022;10.760;2023-01-29T13:16:18;10.68;;;7.30;;
30515;SDS011;17297;54.022;10.760;2023-01-29T13:21:26;9.70;;;7.05;;
30515;SDS011;17297;54.022;10.760;2023-01-29T13:23:55;10.77;;;7.00;;
30515;SDS011;17297;54.022;10.760;2023-01-29T13:26:24;12.30;;;8.50;;
30515;SDS011;17297;54.022;10.760;2023-01-29T13:28:50;10.95;;;7.75;;
30515;SDS011;17297;54.022;10.760;2023-01-29T13:31:27;10.35;;;7.63;;
30515;SDS011;17297;54.022;10.760;2023-01-29T13:33:54;11.93;;;7.90;;
30515;SDS011;17297;54.022;10.760;2023-01-29T13:36:33;14.15;;;8.70;;
30515;SDS011;17297;54.022;10.760;2023-01-29T13:39:05;11.00;;;8.50;;
30515;SDS011;17297;54.022;10.760;2023-01-29T13:41:36;10.10;;;8.02;;
30515;SDS011;17297;54.022;10.760;2023-01-29T13:44:06;11.65;;;7.65;;
30515;SDS011;17297;54.022;10.760;2023-01-29T13:46:42;10.70;;;8.00;;
30515;SDS011;17297;54.022;10.760;2023-01-29T13:51:48;10.60;;;7.25;;
30515;SDS011;17297;54.022;10.760;2023-01-29T13:54:15;11.13;;;7.35;;
30515;SDS011;17297;54.022;10.760;2023-01-29T13:56:46;10.88;;;7.57;;
30515;SDS011;17297;54.022;10.760;2023-01-29T14:00:08;11.10;;;7.88;;
30515;SDS011;17297;54.022;10.760;2023-01-29T14:04:47;9.95;;;7.82;;
30515;SDS011;17297;54.022;10.760;2023-01-29T14:10:24;13.38;;;8.27;;
30515;SDS011;17297;54.022;10.760;2023-01-29T14:12:54;11.25;;;8.57;;
30515;SDS011;17297;54.022;10.760;2023-01-29T14:18:25;10.35;;;7.35;;
30515;SDS011;17297;54.022;10.760;2023-01-29T14:20:53;12.68;;;7.70;;
30515;SDS011;17297;54.022;10.760;2023-01-29T14:25:53;11.02;;;8.07;;
30515;SDS011;17297;54.022;10.760;2023-01-29T14:28:21;11.68;;;8.70;;
30515;SDS011;17297;54.022;10.760;2023-01-29T14:30:49;11.20;;;8.20;;
30515;SDS011;17297;54.022;10.760;2023-01-29T14:33:37;14.25;;;9.25;;
30515;SDS011;17297;54.022;10.760;2023-01-29T14:36:03;12.75;;;8.43;;
30515;SDS011;17297;54.022;10.760;2023-01-29T14:38:33;13.15;;;9.05;;
30515;SDS011;17297;54.022;10.760;2023-01-29T14:41:07;11.75;;;8.48;;
30515;SDS011;17297;54.022;10.760;2023-01-29T14:43:41;13.02;;;8.85;;
30515;SDS011;17297;54.022;10.760;2023-01-29T14:49:00;12.60;;;8.63;;
30515;SDS011;17297;54.022;10.760;2023-01-29T14:51:26;11.20;;;8.00;;
30515;SDS011;17297;54.022;10.760;2023-01-29T14:54:03;13.15;;;8.10;;
30515;SDS011;17297;54.022;10.760;2023-01-29T14:56:40;12.80;;;8.45;;
30515;SDS011;17297;54.022;10.760;2023-01-29T14:59:18;14.55;;;9.15;;
30515;SDS011;17297;54.022;10.760;2023-01-29T15:01:52;13.73;;;8.98;;
30515;SDS011;17297;54.022;10.760;2023-01-29T15:04:42;11.15;;;8.15;;
30515;SDS011;17297;54.022;10.760;2023-01-29T15:12:08;12.23;;;9.38;;
30515;SDS011;17297;54.022;10.760;2023-01-29T15:15:30;13.00;;;9.05;;
30515;SDS011;17297;54.022;10.760;2023-01-29T15:20:37;12.27;;;8.13;;
30515;SDS011;17297;54.022;10.760;2023-01-29T15:23:21;10.10;;;7.68;;
30515;SDS011;17297;54.022;10.760;2023-01-29T15:25:48;12.80;;;8.52;;
30515;SDS011;17297;54.022;10.760;2023-01-29T15:28:16;13.43;;;9.23;;
30515;SDS011;17297;54.022;10.760;2023-01-29T15:30:41;13.30;;;9.27;;
30515;SDS011;17297;54.022;10.760;2023-01-29T15:33:09;14.27;;;9.52;;
30515;SDS011;17297;54.022;10.760;2023-01-29T15:35:39;12.88;;;8.95;;
30515;SDS011;17297;54.022;10.760;2023-01-29T15:38:19;12.80;;;8.68;;
30515;SDS011;17297;54.022;10.760;2023-01-29T15:43:27;13.32;;;8.27;;
30515;SDS011;17297;54.022;10.760;2023-01-29T15:46:33;14.05;;;8.32;;
30515;SDS011;17297;54.022;10.760;2023-01-29T15:48:54;11.63;;;8.65;;
30515;SDS011;17297;54.022;10.760;2023-01-29T15:51:21;11.77;;;7.88;;
30515;SDS011;17297;54.022;10.760;2023-01-29T15:53:50;11.43;;;8.43;;
30515;SDS011;17297;54.022;10.760;2023-01-29T15:56:25;9.23;;;7.05;;
30515;SDS011;17297;54.022;10.760;2023-01-29T15:58:56;11.63;;;7.90;;
30515;SDS011;17297;54.022;10.760;2023-01-29T16:01:25;11.98;;;8.55;;
30515;SDS011;17297;54.022;10.760;2023-01-29T16:03:51;11.80;;;8.27;;
30515;SDS011;17297;54.022;10.760;2023-01-29T16:06:17;12.57;;;8.90;;
30515;SDS011;17297;54.022;10.760;2023-01-29T16:08:43;11.63;;;8.10;;
30515;SDS011;17297;54.022;10.760;2023-01-29T16:11:12;12.85;;;8.52;;
30515;SDS011;17297;54.022;10.760;2023-01-29T16:13:40;12.68;;;8.27;;
30515;SDS011;17297;54.022;10.760;2023-01-29T16:18:39;12.82;;;8.68;;
30515;SDS011;17297;54.022;10.760;2023-01-29T16:23:43;12.52;;;8.45;;
30515;SDS011;17297;54.022;10.760;2023-01-29T16:26:14;11.60;;;7.88;;
30515;SDS011;17297;54.022;10.760;2023-01-29T16:28:49;15.68;;;9.52;;
30515;SDS011;17297;54.022;10.760;2023-01-29T16:31:22;14.52;;;9.18;;
30515;SDS011;17297;54.022;10.760;2023-01-29T16:33:51;11.30;;;8.30;;
30515;SDS011;17297;54.022;10.760;2023-01-29T16:36:18;12.65;;;8.68;;
30515;SDS011;17297;54.022;10.760;2023-01-29T16:38:50;12.57;;;8.82;;
30515;SDS011;17297;54.022;10.760;2023-01-29T16:43:57;11.32;;;8.05;;
30515;SDS011;17297;54.022;10.760;2023-01-29T16:46:36;13.18;;;9.00;;
30515;SDS011;17297;54.022;10.760;2023-01-29T16:49:40;11.63;;;8.27;;
30515;SDS011;17297;54.022;10.760;2023-01-29T16:51:53;11.80;;;8.07;;
30515;SDS011;17297;54.022;10.760;2023-01-29T16:54:26;9.93;;;7.05;;
30515;SDS011;17297;54.022;10.760;2023-01-29T16:56:53;11.13;;;8.23;;
30515;SDS011;17297;54.022;10.760;2023-01-29T16:59:32;12.68;;;8.18;;
30515;SDS011;17297;54.022;10.760;2023-01-29T17:02:02;11.63;;;8.00;;
30515;SDS011;17297;54.022;10.760;2023-01-29T17:04:28;10.10;;;7.53;;
30515;SDS011;17297;54.022;10.760;2023-01-29T17:06:55;10.27;;;7.45;;